Temp: 2.3°C   Baro: 1026.8mb
  Wind: 0.9mph   Dir: ESE (123°)
  Rain: 0.0mm (0.0mm/hr)
  Solar: 102W/m2  Hum: 97%

Historic data

Bath Spa Weather Station Historical Data
Daily Summary for August 06, 2022 Units:  English    Metric   Both
Daily Weekly Monthly Yearly Custom
  High: Low: Average:
Temperature: 76.6 °F 47.1 °F 62.1 °F
Dew Point: 55 °F 42.4 °F 49.1 °F
Humidity: 84% 40.6% 64%
Wind Speed: 7.4mph 0mph 2.2mph
Wind Gust: 13mph - -
Wind- - SW
Pressure: 30.44 in 30.35 in -
Precipitation: 0.00 in    
Historical Graphs
 
 
Tabular Data for August 06, 2022
Time Temperature Dew Point Pressure Wind Wind Speed Wind Gust Humidity Rainfall Rate (Hourly) solar
00:09 58.2 °F 47.7 °F 30.38 in North 1.4 mph 6 mph 68% 0.00 in 0 W/m2
00:14 57.9 °F 47.5 °F 30.38 in North 1.8 mph 6 mph 68% 0.00 in 0 W/m2
00:19 57.9 °F 47.6 °F 30.38 in North 1 mph 5 mph 68.2% 0.00 in 0 W/m2
00:24 57.8 °F 47.4 °F 30.39 in NNE 2 mph 5 mph 68% 0.00 in 0 W/m2
00:29 57.7 °F 47.3 °F 30.39 in NE 2.5 mph 9 mph 68% 0.00 in 0 W/m2
00:34 57.7 °F 47.3 °F 30.39 in NNE 3 mph 6 mph 68% 0.00 in 0 W/m2
00:39 57.7 °F 47.3 °F 30.39 in NE 2.5 mph 7 mph 68% 0.00 in 0 W/m2
00:44 57.7 °F 47.3 °F 30.39 in NNE 1.9 mph 6 mph 68% 0.00 in 0 W/m2
00:49 57.6 °F 47.2 °F 30.39 in NNE 0.2 mph 2 mph 68% 0.00 in 0 W/m2
00:54 57.4 °F 46.9 °F 30.39 in NNE 0.9 mph 3 mph 68% 0.00 in 0 W/m2
00:59 57.2 °F 46.8 °F 30.39 in NNE 0.4 mph 3 mph 68% 0.00 in 0 W/m2
01:03 56.9 °F 46.7 °F 30.39 in NNE 0.5 mph 2 mph 68.5% 0.00 in 0 W/m2
01:09 56.7 °F 46.6 °F 30.39 in NNE 0.5 mph 2 mph 69% 0.00 in 0 W/m2
01:14 56.5 °F 46.6 °F 30.39 in NNE 0.8 mph 3 mph 69.4% 0.00 in 0 W/m2
01:19 56.1 °F 46.4 °F 30.39 in NNE 1.1 mph 3 mph 70% 0.00 in 0 W/m2
01:24 55.8 °F 46.8 °F 30.39 in NNE 0.9 mph 3 mph 71.4% 0.00 in 0 W/m2
01:29 55.6 °F 46.9 °F 30.40 in NNE 0.9 mph 3 mph 72.4% 0.00 in 0 W/m2
01:34 55.2 °F 46.8 °F 30.40 in NNE 0.4 mph 2 mph 73% 0.00 in 0 W/m2
01:39 55 °F 46.9 °F 30.40 in NNE 0.4 mph 2 mph 74% 0.00 in 0 W/m2
01:44 54.9 °F 46.9 °F 30.40 in NNE 0.5 mph 2 mph 74.6% 0.00 in 0 W/m2
01:49 54.6 °F 46.8 °F 30.40 in NNE 1.6 mph 3 mph 75% 0.00 in 0 W/m2
01:54 54.2 °F 46.7 °F 30.40 in NNE 0.9 mph 2 mph 75.6% 0.00 in 0 W/m2
01:59 54.1 °F 46.7 °F 30.40 in NNE 0.8 mph 2 mph 76% 0.00 in 0 W/m2
02:04 54 °F 46.6 °F 30.40 in NNE 0.2 mph 1 mph 76% 0.00 in 0 W/m2
02:08 53.8 °F 46.6 °F 30.40 in NNE 0.2 mph 1 mph 76.5% 0.00 in 0 W/m2
02:14 53.5 °F 46.5 °F 30.40 in Calm   1 mph 77% 0.00 in 0 W/m2
02:19 53.4 °F 46.4 °F 30.40 in Calm   1 mph 77% 0.00 in 0 W/m2
02:24 53.3 °F 46.3 °F 30.40 in NNE 0.8 mph 2 mph 77% 0.00 in 0 W/m2
02:29 53.2 °F 46.2 °F 30.40 in Calm   1 mph 77% 0.00 in 0 W/m2
02:34 53.1 °F 46 °F 30.40 in Calm   1 mph 77% 0.00 in 0 W/m2
02:39 53 °F 45.9 °F 30.40 in Calm   1 mph 77% 0.00 in 0 W/m2
02:44 52.9 °F 45.9 °F 30.40 in Calm   1 mph 77% 0.00 in 0 W/m2
02:49 52.7 °F 45.7 °F 30.40 in Calm     77% 0.00 in 0 W/m2
02:54 52.5 °F 45.5 °F 30.40 in Calm   1 mph 77% 0.00 in 0 W/m2
02:59 52.5 °F 45.5 °F 30.40 in Calm     77% 0.00 in 0 W/m2
03:04 52.3 °F 45.4 °F 30.40 in Calm     77.2% 0.00 in 0 W/m2
03:09 52.2 °F 45.6 °F 30.40 in Calm     78% 0.00 in 0 W/m2
03:14 52 °F 45.3 °F 30.40 in Calm     77.8% 0.00 in 0 W/m2
03:19 51.6 °F 45 °F 30.40 in Calm     78% 0.00 in 0 W/m2
03:24 51.6 °F 45 °F 30.40 in Calm     78% 0.00 in 0 W/m2
03:29 51.4 °F 44.8 °F 30.40 in Calm     78% 0.00 in 0 W/m2
03:34 51.6 °F 45 °F 30.40 in Calm     78% 0.00 in 0 W/m2
03:39 51.4 °F 44.8 °F 30.40 in Calm     78% 0.00 in 0 W/m2
03:44 51.1 °F 44.4 °F 30.40 in Calm     78% 0.00 in 0 W/m2
03:49 50.8 °F 44.1 °F 30.40 in Calm     78% 0.00 in 0 W/m2
03:54 50.7 °F 44.1 °F 30.41 in Calm     78% 0.00 in 0 W/m2
03:59 50.5 °F 43.9 °F 30.41 in Calm     78% 0.00 in 0 W/m2
04:04 50.4 °F 43.7 °F 30.41 in Calm     78% 0.00 in 0 W/m2
04:09 50.3 °F 43.6 °F 30.41 in Calm     78% 0.00 in 0 W/m2
04:14 50.1 °F 43.5 °F 30.41 in Calm     78.2% 0.00 in 0 W/m2
04:19 49.8 °F 43.5 °F 30.41 in Calm     79% 0.00 in 0 W/m2
04:24 49.6 °F 43.3 °F 30.41 in Calm     79% 0.00 in 0 W/m2
04:29 49.6 °F 43.3 °F 30.41 in Calm     79% 0.00 in 0 W/m2
04:34 49.5 °F 43.6 °F 30.41 in Calm     80% 0.00 in 0 W/m2
04:39 49.4 °F 43.4 °F 30.41 in Calm     80% 0.00 in 0 W/m2
04:44 49.1 °F 43.2 °F 30.41 in Calm     80% 0.00 in 0 W/m2
04:49 48.8 °F 43 °F 30.41 in Calm     80.2% 0.00 in 0 W/m2
04:54 48.7 °F 43 °F 30.41 in Calm     80.4% 0.00 in 0 W/m2
04:59 48.6 °F 43.1 °F 30.41 in Calm     81% 0.00 in 0 W/m2
05:04 48.6 °F 43 °F 30.41 in Calm     81% 0.00 in 0 W/m2
05:09 48.6 °F 43 °F 30.41 in Calm     81% 0.00 in 0 W/m2
05:14 48.4 °F 42.8 °F 30.41 in Calm     81% 0.00 in 0 W/m2
05:19 48.4 °F 43 °F 30.41 in Calm     81.4% 0.00 in 0 W/m2
05:24 48.1 °F 42.7 °F 30.41 in Calm     81.6% 0.00 in 0 W/m2
05:29 48 °F 42.8 °F 30.41 in Calm     82% 0.00 in 0 W/m2
05:34 48 °F 42.8 °F 30.41 in Calm     82% 0.00 in 0 W/m2
05:39 47.8 °F 42.6 °F 30.41 in Calm     82% 0.00 in 0 W/m2
05:44 47.7 °F 42.6 °F 30.42 in Calm     82.4% 0.00 in 5 W/m2
05:49 47.7 °F 42.8 °F 30.42 in Calm     83% 0.00 in 7 W/m2
05:54 47.7 °F 42.8 °F 30.42 in Calm     83% 0.00 in 7 W/m2
05:59 47.6 °F 42.7 °F 30.42 in Calm     83% 0.00 in 9 W/m2
06:04 47.5 °F 42.6 °F 30.42 in Calm     83% 0.00 in 12 W/m2
06:09 47.3 °F 42.4 °F 30.42 in Calm     83% 0.00 in 14 W/m2
06:14 47.2 °F 42.5 °F 30.42 in Calm     83.4% 0.00 in 16 W/m2
06:19 47.1 °F 42.6 °F 30.42 in Calm     84% 0.00 in 18 W/m2
06:24 47.1 °F 42.6 °F 30.42 in Calm     84% 0.00 in 18 W/m2
06:29 47.1 °F 42.6 °F 30.42 in Calm     84% 0.00 in 19 W/m2
06:34 47.1 °F 42.6 °F 30.43 in Calm     84% 0.00 in 23 W/m2
06:39 47.2 °F 42.7 °F 30.43 in Calm     84% 0.00 in 25 W/m2
06:44 47.3 °F 42.8 °F 30.43 in Calm     84% 0.00 in 26 W/m2
06:49 47.5 °F 42.8 °F 30.43 in Calm     84% 0.00 in 28 W/m2
06:54 47.5 °F 42.8 °F 30.43 in Calm     84% 0.00 in 32 W/m2
06:59 47.7 °F 43 °F 30.43 in Calm     84% 0.00 in 39 W/m2
07:04 47.9 °F 43.3 °F 30.43 in Calm     84% 0.00 in 47 W/m2
07:09 48.4 °F 43.7 °F 30.44 in Calm     84% 0.00 in 60 W/m2
07:14 48.6 °F 43.9 °F 30.44 in Calm     84% 0.00 in 74 W/m2
07:19 48.7 °F 43.9 °F 30.43 in Calm     83% 0.00 in 90 W/m2
07:24 49 °F 44.2 °F 30.44 in Calm     83% 0.00 in 107 W/m2
07:29 49.4 °F 44.5 °F 30.44 in Calm     83% 0.00 in 114 W/m2
07:34 49.7 °F 44.8 °F 30.44 in Calm     83% 0.00 in 109 W/m2
07:39 50.2 °F 44.9 °F 30.44 in Calm     82% 0.00 in 134 W/m2
07:44 50.4 °F 45.2 °F 30.44 in Calm     82% 0.00 in 156 W/m2
07:49 50.8 °F 45.3 °F 30.44 in Calm     81.3% 0.00 in 178 W/m2
07:54 51.2 °F 45.7 °F 30.44 in Calm     81% 0.00 in 188 W/m2
07:59 51.7 °F 45.8 °F 30.44 in NNE 0.8 mph 2 mph 80.2% 0.00 in 200 W/m2
08:04 52.2 °F 45.9 °F 30.44 in North 1.2 mph 2 mph 79% 0.00 in 218 W/m2
08:09 52.7 °F 46 °F 30.44 in NNW 0.9 mph 3 mph 77.8% 0.00 in 236 W/m2
08:14 53.2 °F 46 °F 30.44 in NNW 1.2 mph 3 mph 76.6% 0.00 in 251 W/m2
08:19 53.4 °F 45.9 °F 30.44 in NNW 0.4 mph 3 mph 75.8% 0.00 in 267 W/m2
08:24 53.8 °F 46 °F 30.44 in NNW 1 mph 3 mph 75% 0.00 in 279 W/m2
08:29 54.4 °F 46.5 °F 30.44 in NNW 0.4 mph 2 mph 74.4% 0.00 in 301 W/m2
08:34 55.1 °F 46.8 °F 30.44 in NNW 1.1 mph 3 mph 73.2% 0.00 in 318 W/m2
08:39 55.5 °F 46.8 °F 30.44 in NW 1.3 mph 3 mph 72.2% 0.00 in 332 W/m2
08:44 56.1 °F 47.3 °F 30.44 in NW 0.9 mph 3 mph 72% 0.00 in 352 W/m2
08:49 56.8 °F 47.6 °F 30.44 in NW 1.4 mph 3 mph 71.6% 0.00 in 367 W/m2
08:54 57.1 °F 47.8 °F 30.44 in NW 1 mph 3 mph 71% 0.00 in 380 W/m2
08:59 57.6 °F 48.2 °F 30.44 in NW 1 mph 3 mph 71% 0.00 in 394 W/m2
09:04 58.3 °F 48.7 °F 30.44 in NW 1.6 mph 4 mph 70.4% 0.00 in 406 W/m2
09:09 58.8 °F 49.1 °F 30.44 in NW 0.9 mph 4 mph 70% 0.00 in 418 W/m2
09:14 59.4 °F 49.7 °F 30.44 in NW 0.8 mph 2 mph 70% 0.00 in 436 W/m2
09:19 60.1 °F 49.8 °F 30.44 in WSW 1.7 mph 4 mph 69% 0.00 in 448 W/m2
09:24 60.4 °F 49.8 °F 30.44 in WSW 1.6 mph 3 mph 68.2% 0.00 in 461 W/m2
09:29 61 °F 50.4 °F 30.44 in WSW 1.1 mph 4 mph 68% 0.00 in 476 W/m2
09:34 61.7 °F 50.6 °F 30.44 in WNW 2.8 mph 6 mph 67% 0.00 in 487 W/m2
09:39 61.3 °F 49.8 °F 30.44 in SSE 3.4 mph 6 mph 66% 0.00 in 499 W/m2
09:44 61.1 °F 50.3 °F 30.44 in SE 3.7 mph 6 mph 67.6% 0.00 in 512 W/m2
09:49 61.7 °F 51 °F 30.44 in SE 2.7 mph 6 mph 67.8% 0.00 in 526 W/m2
09:54 62.4 °F 51.2 °F 30.44 in SSE 2.5 mph 7 mph 66.6% 0.00 in 538 W/m2
09:59 62.2 °F 50.6 °F 30.44 in SSE 3.5 mph 7 mph 65.6% 0.00 in 540 W/m2
10:04 62.2 °F 50.8 °F 30.44 in SSE 2.6 mph 7 mph 66.2% 0.00 in 547 W/m2
10:09 62.9 °F 51.3 °F 30.44 in SSE 1.8 mph 4 mph 65.8% 0.00 in 559 W/m2
10:14 63.1 °F 50.6 °F 30.44 in SSE 1.5 mph 5 mph 64% 0.00 in 578 W/m2
10:19 63.4 °F 51 °F 30.44 in SE 1.2 mph 3 mph 64% 0.00 in 584 W/m2
10:24 64.5 °F 51.6 °F 30.44 in ESE 3.7 mph 10 mph 63% 0.00 in 587 W/m2
10:29 65.6 °F 51.9 °F 30.44 in NE 4.5 mph 12 mph 61.2% 0.00 in 612 W/m2
10:34 66.3 °F 51.6 °F 30.44 in NNE 2.7 mph 8 mph 59% 0.00 in 656 W/m2
10:39 65.9 °F 50.8 °F 30.44 in WNW 2.2 mph 4 mph 58% 0.00 in 696 W/m2
10:44 65.8 °F 51.1 °F 30.44 in West 3.1 mph 6 mph 59.2% 0.00 in 714 W/m2
10:49 65.4 °F 51.4 °F 30.44 in WSW 4.8 mph 8 mph 60.6% 0.00 in 708 W/m2
10:54 65.5 °F 51.4 °F 30.44 in WNW 3.7 mph 6 mph 60.6% 0.00 in 686 W/m2
10:59 65.5 °F 51.3 °F 30.44 in West 2.4 mph 6 mph 60% 0.00 in 675 W/m2
11:04 65.6 °F 50.8 °F 30.44 in WNW 4.1 mph 7 mph 58.8% 0.00 in 726 W/m2
11:09 65.7 °F 50.2 °F 30.44 in NW 4.4 mph 8 mph 57.6% 0.00 in 714 W/m2
11:14 65.8 °F 50 °F 30.44 in NW 2.4 mph 8 mph 56.8% 0.00 in 747 W/m2
11:19 66.1 °F 49.4 °F 30.44 in NW 3.8 mph 9 mph 54.8% 0.00 in 751 W/m2
11:24 66 °F 49.5 °F 30.44 in NNW 1.9 mph 6 mph 55% 0.00 in 714 W/m2
11:29 66.2 °F 49.4 °F 30.44 in North 4.2 mph 8 mph 54.6% 0.00 in 744 W/m2
11:34 66.5 °F 49.2 °F 30.44 in NW 5.2 mph 11 mph 53.8% 0.00 in 752 W/m2
11:39 66.5 °F 49.3 °F 30.44 in NNW 3.3 mph 9 mph 53.8% 0.00 in 717 W/m2
11:44 66.9 °F 48.9 °F 30.44 in NW 5.8 mph 12 mph 52.4% 0.00 in 735 W/m2
11:49 66.6 °F 48.4 °F 30.44 in NNW 5.3 mph 12 mph 52% 0.00 in 729 W/m2
11:54 66.8 °F 48.4 °F 30.43 in NW 5.2 mph 10 mph 51.6% 0.00 in 731 W/m2
11:59 66.8 °F 48.2 °F 30.43 in NNW 6.6 mph 10 mph 51.2% 0.00 in 742 W/m2
12:04 66.7 °F 48 °F 30.43 in NNW 5 mph 9 mph 51% 0.00 in 761 W/m2
12:09 67.1 °F 48.2 °F 30.43 in NW 5.6 mph 10 mph 50.8% 0.00 in 765 W/m2
12:14 67.4 °F 48.3 °F 30.43 in North 4 mph 9 mph 50.2% 0.00 in 765 W/m2
12:19 67.7 °F 48.5 °F 30.43 in NNW 5 mph 8 mph 50% 0.00 in 765 W/m2
12:24 68.5 °F 48.5 °F 30.43 in North 1.7 mph 7 mph 48.8% 0.00 in 775 W/m2
12:29 69.8 °F 49.6 °F 30.43 in ENE 5.7 mph 11 mph 48.6% 0.00 in 775 W/m2
12:34 70.6 °F 48.9 °F 30.43 in NE 6.7 mph 11 mph 46.2% 0.00 in 782 W/m2
12:39 71.2 °F 48.8 °F 30.43 in NNE 2.6 mph 10 mph 45.2% 0.00 in 784 W/m2
12:44 69.7 °F 48.4 °F 30.43 in NNW 6.4 mph 12 mph 46.8% 0.00 in 786 W/m2
12:49 68.7 °F 48.6 °F 30.42 in WNW 4.5 mph 9 mph 48.8% 0.00 in 788 W/m2
12:54 69.1 °F 49.1 °F 30.42 in NNE 4.3 mph 9 mph 49% 0.00 in 788 W/m2
12:59 70.1 °F 49.3 °F 30.42 in NE 4.4 mph 7 mph 47.6% 0.00 in 796 W/m2
13:04 71.4 °F 49.8 °F 30.42 in NE 3.5 mph 8 mph 46.4% 0.00 in 798 W/m2
13:09 72 °F 49.9 °F 30.42 in NNW 5 mph 10 mph 45.8% 0.00 in 800 W/m2
13:14 70.7 °F 49.4 °F 30.42 in North 4.8 mph 12 mph 46.8% 0.00 in 800 W/m2
13:19 71 °F 49.8 °F 30.42 in North 2.6 mph 4 mph 47% 0.00 in 805 W/m2
13:24 71.1 °F 50 °F 30.42 in North 3.3 mph 10 mph 47.2% 0.00 in 784 W/m2
13:29 70.9 °F 49.5 °F 30.42 in NNE 4 mph 9 mph 46.8% 0.00 in 803 W/m2
13:34 70.6 °F 49.1 °F 30.42 in NNW 6.4 mph 13 mph 46.6% 0.00 in 802 W/m2
13:39 69.8 °F 48.4 °F 30.42 in NNE 3.6 mph 10 mph 46.6% 0.00 in 817 W/m2
13:44 70.2 °F 49.1 °F 30.41 in NE 3.8 mph 11 mph 47.2% 0.00 in 807 W/m2
13:49 71.5 °F 49.8 °F 30.41 in North 4.4 mph 9 mph 46.2% 0.00 in 791 W/m2
13:54 71.9 °F 49.5 °F 30.41 in North 4.6 mph 10 mph 45.2% 0.00 in 791 W/m2
13:59 71.1 °F 48.5 °F 30.41 in NNE 5.1 mph 10 mph 44.8% 0.00 in 789 W/m2
14:04 71.7 °F 48.9 °F 30.41 in NE 2.9 mph 8 mph 44.4% 0.00 in 789 W/m2
14:09 72.1 °F 48.7 °F 30.41 in NE 2.4 mph 8 mph 43.6% 0.00 in 791 W/m2
14:14 72.8 °F 50 °F 30.41 in North 3.6 mph 11 mph 44.6% 0.00 in 784 W/m2
14:19 72 °F 49.6 °F 30.40 in North 7.4 mph 13 mph 45.2% 0.00 in 780 W/m2
14:24 71.2 °F 49.2 °F 30.41 in NNE 2.5 mph 13 mph 45.8% 0.00 in 784 W/m2
14:29 72.2 °F 50.2 °F 30.40 in NNW 2.8 mph 8 mph 45.8% 0.00 in 780 W/m2
14:34 73.1 °F 50.3 °F 30.40 in WSW 0.7 mph 3 mph 44.8% 0.00 in 768 W/m2
14:39 74.3 °F 50.5 °F 30.40 in ESE 4.8 mph 8 mph 43.2% 0.00 in 772 W/m2
14:44 73.3 °F 49.7 °F 30.40 in South 3.3 mph 7 mph 43.4% 0.00 in 766 W/m2
14:49 73.1 °F 50.1 °F 30.40 in NE 4.4 mph 8 mph 44.4% 0.00 in 758 W/m2
14:54 74.5 °F 50.8 °F 30.40 in NNE 5.8 mph 10 mph 43.6% 0.00 in 754 W/m2
14:59 74.3 °F 50 °F 30.40 in NE 6 mph 13 mph 42.4% 0.00 in 742 W/m2
15:04 74.7 °F 50.3 °F 30.40 in NE 3.9 mph 8 mph 42.4% 0.00 in 742 W/m2
15:09 74.5 °F 49.6 °F 30.40 in SSE 3.2 mph 10 mph 41.5% 0.00 in 726 W/m2
15:14 73 °F 49.6 °F 30.39 in WNW 2.6 mph 6 mph 43.6% 0.00 in 719 W/m2
15:19 73.4 °F 50.2 °F 30.39 in North 3.3 mph 8 mph 44% 0.00 in 714 W/m2
15:24 73.9 °F 50.4 °F 30.39 in NE 3.4 mph 11 mph 43.6% 0.00 in 712 W/m2
15:29 74.8 °F 50.6 °F 30.39 in NE 5.9 mph 12 mph 42.6% 0.00 in 700 W/m2
15:34 74.9 °F 50.6 °F 30.39 in North 3 mph 9 mph 42.4% 0.00 in 691 W/m2
15:39 74.8 °F 50.1 °F 30.39 in NNE 1.3 mph 6 mph 41.8% 0.00 in 682 W/m2
15:44 73.9 °F 50.3 °F 30.38 in NNW 5 mph 11 mph 43.6% 0.00 in 680 W/m2
15:49 73.7 °F 50.4 °F 30.38 in NNW 5.6 mph 11 mph 43.8% 0.00 in 671 W/m2
15:54 73.7 °F 50.7 °F 30.38 in North 3.9 mph 11 mph 44.4% 0.00 in 663 W/m2
15:59 73.8 °F 50.6 °F 30.38 in North 3.4 mph 8 mph 44% 0.00 in 657 W/m2
16:04 73.9 °F 50.1 °F 30.38 in NW 2.2 mph 5 mph 43.2% 0.00 in 647 W/m2
16:09 74.3 °F 50.8 °F 30.38 in NNW 3.2 mph 8 mph 43.6% 0.00 in 645 W/m2
16:14 74.7 °F 50.2 °F 30.37 in NW 3.7 mph 8 mph 42.3% 0.00 in 626 W/m2
16:19 74.4 °F 50.3 °F 30.37 in NNE 3.1 mph 9 mph 42.8% 0.00 in 613 W/m2
16:24 75.5 °F 50.7 °F 30.37 in ENE 2.4 mph 7 mph 41.8% 0.00 in 603 W/m2
16:29 76.6 °F 51.2 °F 30.37 in NNE 3.1 mph 7 mph 41% 0.00 in 605 W/m2
16:34 76.5 °F 50.9 °F 30.37 in NNE 2.5 mph 10 mph 40.6% 0.00 in 596 W/m2
16:39 75.2 °F 50.4 °F 30.37 in NNW 5.3 mph 13 mph 41.8% 0.00 in 578 W/m2
16:44 73.8 °F 49.9 °F 30.37 in NW 2 mph 9 mph 43% 0.00 in 568 W/m2
16:49 73.9 °F 50.2 °F 30.37 in NNW 4.2 mph 8 mph 43.4% 0.00 in 557 W/m2
16:54 73.7 °F 49.9 °F 30.37 in North 4.6 mph 10 mph 43.2% 0.00 in 563 W/m2
16:59 73.7 °F 50.1 °F 30.36 in NNW 1.6 mph 5 mph 43.6% 0.00 in 538 W/m2
17:04 74 °F 50.7 °F 30.36 in NW 3.8 mph 10 mph 44% 0.00 in 524 W/m2
17:09 73.9 °F 50.9 °F 30.36 in NNW 4.5 mph 7 mph 44.4% 0.00 in 512 W/m2
17:14 74 °F 50.7 °F 30.36 in North 2.9 mph 8 mph 44% 0.00 in 504 W/m2
17:19 74.6 °F 51.2 °F 30.36 in NNW 5.2 mph 10 mph 44% 0.00 in 489 W/m2
17:24 74.5 °F 51.1 °F 30.36 in NNW 4.2 mph 7 mph 44% 0.00 in 476 W/m2
17:29 74.9 °F 51.5 °F 30.36 in NNE 3.1 mph 7 mph 44% 0.00 in 468 W/m2
17:34 75.1 °F 51.4 °F 30.36 in NW 4.5 mph 7 mph 43.6% 0.00 in 455 W/m2
17:39 74.1 °F 50.9 °F 30.36 in West 2.6 mph 6 mph 44% 0.00 in 434 W/m2
17:44 74.2 °F 51 °F 30.36 in North 4.4 mph 10 mph 44.2% 0.00 in 408 W/m2
17:49 74.2 °F 50.9 °F 30.36 in North 4.5 mph 8 mph 44% 0.00 in 403 W/m2
17:54 74.1 °F 50.9 °F 30.36 in WNW 1.9 mph 7 mph 44% 0.00 in 378 W/m2
17:59 73.9 °F 51.2 °F 30.36 in WNW 2.4 mph 6 mph 44.8% 0.00 in 350 W/m2
18:04 74.4 °F 52 °F 30.36 in West 3.2 mph 7 mph 45.6% 0.00 in 327 W/m2
18:09 73.9 °F 52.3 °F 30.35 in NNW 4.5 mph 10 mph 46.8% 0.00 in 336 W/m2
18:14 72.8 °F 52.1 °F 30.35 in NW 5.2 mph 10 mph 48.2% 0.00 in 297 W/m2
18:19 72.5 °F 52 °F 30.35 in NW 5.2 mph 10 mph 48.6% 0.00 in 313 W/m2
18:24 72.6 °F 52.3 °F 30.35 in NNW 4.8 mph 8 mph 49% 0.00 in 313 W/m2
18:29 72.8 °F 51.9 °F 30.35 in NW 5 mph 11 mph 48% 0.00 in 301 W/m2
18:34 72.8 °F 52 °F 30.35 in WNW 4.1 mph 8 mph 48.2% 0.00 in 294 W/m2
18:39 73 °F 52.2 °F 30.35 in NNW 3.5 mph 8 mph 48% 0.00 in 279 W/m2
18:44 72.8 °F 52 °F 30.35 in WNW 4.9 mph 9 mph 48% 0.00 in 258 W/m2
18:49 72.2 °F 51.7 °F 30.35 in NW 5 mph 9 mph 48.4% 0.00 in 248 W/m2
18:54 72.1 °F 52 °F 30.35 in NW 4.9 mph 9 mph 49% 0.00 in 239 W/m2
18:59 72.1 °F 51.7 °F 30.35 in NW 5.3 mph 7 mph 48.6% 0.00 in 216 W/m2
19:04 71.8 °F 51.6 °F 30.35 in NW 4.5 mph 11 mph 49% 0.00 in 200 W/m2
19:09 71.5 °F 51.4 °F 30.35 in NW 6 mph 11 mph 49% 0.00 in 163 W/m2
19:14 71.4 °F 51.7 °F 30.35 in NNW 3.7 mph 7 mph 49.8% 0.00 in 171 W/m2
19:19 71.8 °F 51.9 °F 30.35 in NW 3.6 mph 8 mph 49.4% 0.00 in 162 W/m2
19:24 72 °F 52.8 °F 30.35 in NW 3.6 mph 7 mph 51% 0.00 in 149 W/m2
19:29 72 °F 54 °F 30.35 in WNW 3.6 mph 10 mph 53% 0.00 in 134 W/m2
19:34 71.3 °F 53.8 °F 30.35 in WNW 4 mph 10 mph 53.8% 0.00 in 121 W/m2
19:39 70.7 °F 54 °F 30.35 in WNW 4.9 mph 8 mph 55.4% 0.00 in 102 W/m2
19:44 70.2 °F 54.2 °F 30.35 in WNW 5.1 mph 9 mph 57% 0.00 in 93 W/m2
19:48 69.8 °F 54.3 °F 30.36 in NW 5.3 mph 10 mph 58% 0.00 in 76 W/m2
19:54 69.4 °F 54.4 °F 30.36 in NW 3.8 mph 10 mph 58.8% 0.00 in 69 W/m2
19:59 69.3 °F 54.4 °F 30.36 in WNW 5.3 mph 8 mph 59% 0.00 in 63 W/m2
20:04 69.2 °F 54.8 °F 30.36 in West 3.6 mph 7 mph 60% 0.00 in 54 W/m2
20:09 68.9 °F 54.8 °F 30.36 in WNW 4.7 mph 8 mph 60.8% 0.00 in 42 W/m2
20:14 68.5 °F 54.9 °F 30.36 in WNW 3.4 mph 7 mph 61.8% 0.00 in 33 W/m2
20:19 67.9 °F 54.8 °F 30.36 in WNW 5.2 mph 9 mph 62.8% 0.00 in 21 W/m2
20:24 67.3 °F 54.6 °F 30.37 in WNW 4.1 mph 7 mph 63.8% 0.00 in 12 W/m2
20:29 66.7 °F 54.6 °F 30.37 in West 3.2 mph 6 mph 64.8% 0.00 in 11 W/m2
20:34 66.4 °F 54.7 °F 30.37 in West 4.5 mph 8 mph 65.8% 0.00 in 9 W/m2
20:39 66 °F 54.5 °F 30.37 in West 3.8 mph 6 mph 66.6% 0.00 in 7 W/m2
20:44 65.7 °F 54.6 °F 30.37 in WNW 4.3 mph 6 mph 67.4% 0.00 in 5 W/m2
20:49 65.5 °F 54.7 °F 30.37 in WNW 2.6 mph 5 mph 68% 0.00 in 5 W/m2
20:54 65.1 °F 54.5 °F 30.37 in West 3.7 mph 7 mph 68.6% 0.00 in 0 W/m2
20:59 64.9 °F 54.6 °F 30.37 in West 3.3 mph 6 mph 69.4% 0.00 in 0 W/m2
21:04 64.7 °F 54.6 °F 30.37 in WNW 3.8 mph 6 mph 70% 0.00 in 0 W/m2
21:08 64.4 °F 54.8 °F 30.38 in WNW 3.5 mph 6 mph 70.8% 0.00 in 0 W/m2
21:14 64.1 °F 54.8 °F 30.38 in WNW 3.3 mph 7 mph 71.4% 0.00 in 0 W/m2
21:19 64 °F 54.9 °F 30.38 in WNW 3.7 mph 5 mph 72% 0.00 in 0 W/m2
21:24 63.9 °F 54.9 °F 30.38 in WNW 3.5 mph 6 mph 72.6% 0.00 in 0 W/m2
21:29 63.7 °F 55 °F 30.38 in WNW 2.7 mph 6 mph 73.2% 0.00 in 0 W/m2
21:34 63.5 °F 55 °F 30.38 in WNW 2.2 mph 4 mph 74% 0.00 in 0 W/m2
21:39 63.3 °F 54.9 °F 30.38 in WNW 1.7 mph 4 mph 74% 0.00 in 0 W/m2
21:44 63.1 °F 54.9 °F 30.38 in WNW 1.6 mph 4 mph 74.6% 0.00 in 0 W/m2
21:49 63.1 °F 55 °F 30.38 in WNW 0.9 mph 3 mph 75% 0.00 in 0 W/m2
21:54 63 °F 54.9 °F 30.38 in WNW 1 mph 3 mph 75% 0.00 in 0 W/m2
21:59 62.8 °F 55 °F 30.38 in WNW 0.4 mph 2 mph 76% 0.00 in 0 W/m2
22:04 62.6 °F 54.8 °F 30.38 in WNW 0.9 mph 2 mph 76% 0.00 in 0 W/m2
22:09 62.3 °F 54.6 °F 30.38 in WNW 1.2 mph 2 mph 76% 0.00 in 0 W/m2
22:14 62.2 °F 54.7 °F 30.38 in WNW 0.8 mph 3 mph 76.8% 0.00 in 0 W/m2
22:19 62 °F 54.7 °F 30.38 in WNW 1.3 mph 3 mph 77% 0.00 in 0 W/m2
22:24 61.7 °F 54.5 °F 30.38 in WNW 1.2 mph 3 mph 77% 0.00 in 0 W/m2
22:29 61.5 °F 54.3 °F 30.38 in WNW 0.4 mph 2 mph 77% 0.00 in 0 W/m2
22:34 61.3 °F 54.1 °F 30.38 in WNW 0.5 mph 2 mph 77% 0.00 in 0 W/m2
22:39 61.3 °F 54.1 °F 30.38 in WNW 0.4 mph 2 mph 77% 0.00 in 0 W/m2
22:44 61.2 °F 54 °F 30.38 in WNW 0.8 mph 2 mph 77% 0.00 in 0 W/m2
22:49 60.9 °F 53.7 °F 30.38 in WNW 0.4 mph 1 mph 77% 0.00 in 0 W/m2
22:54 60.6 °F 53.4 °F 30.37 in Calm   1 mph 77% 0.00 in 0 W/m2
22:59 60.4 °F 53.2 °F 30.38 in Calm     77% 0.00 in 0 W/m2
23:04 60.4 °F 53.2 °F 30.38 in Calm   1 mph 77% 0.00 in 0 W/m2
23:09 60.4 °F 53.2 °F 30.38 in WNW 0.7 mph 2 mph 77% 0.00 in 0 W/m2
23:14 60.3 °F 53.1 °F 30.38 in WNW 0.2 mph 1 mph 77% 0.00 in 0 W/m2
23:19 60.3 °F 53.1 °F 30.38 in Calm   1 mph 77% 0.00 in 0 W/m2
23:24 60.3 °F 53.1 °F 30.38 in WNW 0.2 mph 2 mph 77% 0.00 in 0 W/m2
23:29 60.1 °F 52.9 °F 30.38 in Calm   1 mph 77% 0.00 in 0 W/m2
23:34 60.1 °F 52.9 °F 30.38 in WNW 0.5 mph 2 mph 77% 0.00 in 0 W/m2
23:39 59.8 °F 52.6 °F 30.37 in WNW 0.2 mph 2 mph 77% 0.00 in 0 W/m2
23:44 59.7 °F 52.6 °F 30.38 in Calm   1 mph 77.2% 0.00 in 0 W/m2
23:49 59.6 °F 52.8 °F 30.38 in WNW 0.4 mph 2 mph 78% 0.00 in 0 W/m2
23:54 59.5 °F 52.9 °F 30.38 in WNW 1.3 mph 2 mph 78.8% 0.00 in 0 W/m2
23:59 59.2 °F 53 °F 30.37 in WNW 0.8 mph 2 mph 79.6% 0.00 in 0 W/m2
Bath Spa Weather
Compliments of Weather Underground - 2 mb